Time;durP1;ratioP1;P1;durP2;ratioP2;P2;SDS_P1;SDS_P2;PMS_P1;PMS_P2;Temp;Humidity;BMP_temperature;BMP_pressure;BME280_temperature;BME280_humidity;BME280_pressure;Samples;Min_cycle;Max_cycle;Signal;HPM_P1;HPM_P2
2020/12/07 00:00:23;;;;;;;13.18;9.15;;;;;;;3.45;68.44;99755.66;5112702;28;20083;-70
2020/12/07 00:02:49;;;;;;;9.35;6.15;;;;;;;3.44;68.60;99753.94;5112413;28;20407;-70
2020/12/07 00:05:15;;;;;;;9.45;5.88;;;;;;;3.42;68.66;99771.25;5112471;28;20101;-71
2020/12/07 00:07:41;;;;;;;15.57;7.43;;;;;;;3.39;68.43;99781.66;5112540;28;20075;-70
2020/12/07 00:10:08;;;;;;;11.50;7.18;;;;;;;3.37;68.61;99753.19;5112154;28;20039;-72
2020/12/07 00:12:36;;;;;;;10.18;6.00;;;;;;;3.36;68.61;99752.34;5112340;28;20047;-73
2020/12/07 00:15:04;;;;;;;13.30;7.72;;;;;;;3.33;68.52;99739.44;5112557;28;20093;-71
2020/12/07 00:17:30;;;;;;;14.93;7.82;;;;;;;3.30;68.36;99742.06;5112445;28;20076;-72
2020/12/07 00:19:56;;;;;;;11.80;7.93;;;;;;;3.28;68.40;99738.66;5112197;28;20101;-70
2020/12/07 00:22:23;;;;;;;15.35;7.88;;;;;;;3.27;68.63;99736.94;5112050;28;20086;-73
2020/12/07 00:24:49;;;;;;;12.60;8.07;;;;;;;3.27;68.57;99749.88;5112215;28;20123;-71
2020/12/07 00:27:21;;;;;;;10.15;6.32;;;;;;;3.26;68.30;99752.50;5112029;28;20139;-71
2020/12/07 00:29:48;;;;;;;13.02;7.78;;;;;;;3.24;68.37;99752.53;5112196;28;20374;-72
2020/12/07 00:32:14;;;;;;;11.50;6.70;;;;;;;3.24;68.48;99749.94;5112097;28;20387;-71
2020/12/07 00:34:41;;;;;;;12.20;7.03;;;;;;;3.24;68.43;99752.53;5112037;28;20534;-71
2020/12/07 00:37:08;;;;;;;13.02;6.93;;;;;;;3.21;68.27;99757.78;5110381;28;20077;-72
2020/12/07 00:39:34;;;;;;;13.88;8.00;;;;;;;3.21;68.26;99746.56;5111949;28;20571;-71
2020/12/07 00:42:01;;;;;;;10.32;5.82;;;;;;;3.21;68.46;99757.78;5112023;28;20075;-70
2020/12/07 00:44:27;;;;;;;9.10;5.35;;;;;;;3.20;68.48;99744.84;5112019;28;20419;-72
2020/12/07 00:46:54;;;;;;;13.77;7.03;;;;;;;3.17;68.41;99740.56;5112242;28;20989;-69
2020/12/07 00:49:21;;;;;;;13.02;7.40;;;;;;;3.16;68.23;99738.88;5111885;28;20105;-71
2020/12/07 00:51:48;;;;;;;12.25;7.05;;;;;;;3.14;68.23;99719.91;5111708;28;20496;-71
2020/12/07 00:54:14;;;;;;;8.98;5.82;;;;;;;3.12;68.41;99716.47;5115502;28;20047;-71
2020/12/07 00:56:40;;;;;;;10.93;7.13;;;;;;;3.09;68.43;99724.28;5115940;28;20047;-71
2020/12/07 00:59:07;;;;;;;8.63;4.85;;;;;;;3.07;68.37;99726.03;5115296;28;20067;-71
2020/12/07 01:01:33;;;;;;;9.07;4.65;;;;;;;3.04;68.19;99723.50;5115602;28;20063;-71
2020/12/07 01:04:00;;;;;;;13.52;6.30;;;;;;;3.03;68.28;99721.81;5115895;28;20097;-71
2020/12/07 01:06:33;;;;;;;14.07;7.68;;;;;;;2.99;68.45;99715.81;5115745;28;20457;-70
2020/12/07 01:09:00;;;;;;;8.35;4.82;;;;;;;2.99;68.35;99715.81;5115698;28;20451;-71
2020/12/07 01:11:26;;;;;;;9.15;6.15;;;;;;;2.98;68.21;99705.50;5115677;28;20572;-71
2020/12/07 01:13:52;;;;;;;15.73;8.77;;;;;;;2.96;68.36;99715.03;5115238;28;20503;-70
2020/12/07 01:16:20;;;;;;;11.70;7.75;;;;;;;2.97;68.34;99712.41;5115123;28;20135;-71
2020/12/07 01:18:46;;;;;;;10.30;6.50;;;;;;;2.96;68.08;99700.34;5115218;28;20078;-70
2020/12/07 01:21:14;;;;;;;17.10;8.70;;;;;;;2.96;68.08;99679.63;5115856;28;20071;-71
2020/12/07 01:23:41;;;;;;;12.27;7.28;;;;;;;2.95;68.09;99700.38;5115419;28;20083;-71
2020/12/07 01:26:08;;;;;;;12.13;6.15;;;;;;;2.95;68.24;99690.00;5115403;28;20052;-71
2020/12/07 01:28:34;;;;;;;10.57;6.25;;;;;;;2.94;68.10;99680.53;5115275;28;20248;-72
2020/12/07 01:31:00;;;;;;;10.43;6.32;;;;;;;2.92;67.95;99677.97;5115510;28;20063;-71
2020/12/07 01:33:26;;;;;;;14.30;7.47;;;;;;;2.94;68.27;99677.94;5114972;28;20113;-72
2020/12/07 01:35:52;;;;;;;12.15;6.82;;;;;;;2.93;68.17;99681.41;5115272;28;20071;-72
2020/12/07 01:38:20;;;;;;;8.73;5.20;;;;;;;2.91;68.23;99681.41;5115043;28;20413;-74
2020/12/07 01:40:46;;;;;;;8.48;5.68;;;;;;;2.90;68.12;99678.84;5115234;28;20063;-71
2020/12/07 01:43:12;;;;;;;15.52;8.65;;;;;;;2.89;68.33;99693.53;5115199;28;20075;-72
2020/12/07 01:45:38;;;;;;;16.02;7.38;;;;;;;2.90;68.18;99684.03;5115324;28;20075;-71
2020/12/07 01:48:05;;;;;;;11.48;7.07;;;;;;;2.86;68.10;99684.97;5115009;28;20105;-72
2020/12/07 01:50:32;;;;;;;12.07;7.13;;;;;;;2.86;68.03;99703.09;5114815;28;20083;-71
2020/12/07 01:52:59;;;;;;;15.57;7.28;;;;;;;2.85;67.85;99678.94;5114725;28;20081;-72
2020/12/07 01:55:27;;;;;;;15.88;7.70;;;;;;;2.85;67.94;99680.66;5114812;28;20075;-71
2020/12/07 01:57:53;;;;;;;10.50;6.15;;;;;;;2.88;67.90;99685.78;5114667;28;20094;-70
2020/12/07 02:00:19;;;;;;;9.95;5.70;;;;;;;2.87;67.85;99689.25;5114638;28;20079;-71
2020/12/07 02:02:45;;;;;;;19.08;8.80;;;;;;;2.85;67.99;99685.84;5114649;28;20143;-72
2020/12/07 02:05:12;;;;;;;8.30;5.40;;;;;;;2.83;67.75;99667.75;5114113;28;20505;-71
2020/12/07 02:07:39;;;;;;;9.45;5.50;;;;;;;2.82;68.08;99680.72;5114498;28;20083;-75
2020/12/07 02:10:05;;;;;;;11.80;6.95;;;;;;;2.79;67.81;99691.13;5114399;28;20507;-71
2020/12/07 02:12:32;;;;;;;7.53;4.93;;;;;;;2.78;67.73;99697.19;5114412;28;20131;-71
2020/12/07 02:14:58;;;;;;;11.27;7.47;;;;;;;2.77;67.68;99708.44;5114250;28;20091;-71
2020/12/07 02:17:24;;;;;;;10.07;6.13;;;;;;;2.77;67.78;99687.72;5114020;28;20127;-75
2020/12/07 02:19:51;;;;;;;8.07;5.95;;;;;;;2.73;67.89;99682.59;5114077;28;20135;-72
2020/12/07 02:22:18;;;;;;;10.90;6.07;;;;;;;2.74;67.84;99679.13;5114174;28;20047;-72
2020/12/07 02:24:44;;;;;;;9.50;6.13;;;;;;;2.75;67.58;99688.59;5114332;28;20126;-71
2020/12/07 02:27:10;;;;;;;9.77;6.60;;;;;;;2.72;67.65;99683.47;5113845;28;20554;-70
2020/12/07 02:29:36;;;;;;;11.18;6.70;;;;;;;2.70;67.85;99698.13;5113914;28;20166;-70
2020/12/07 02:32:11;;;;;;;11.05;6.75;;;;;;;2.67;67.67;99686.97;5113842;28;20051;-72
2020/12/07 02:34:38;;;;;;;12.30;7.15;;;;;;;2.68;67.61;99694.72;5113891;28;20050;-71
2020/12/07 02:37:05;;;;;;;11.50;7.05;;;;;;;2.69;67.58;99665.38;5114041;28;20097;-71
2020/12/07 02:39:31;;;;;;;8.07;5.35;;;;;;;2.66;67.35;99690.44;5113491;28;20075;-72
2020/12/07 02:41:58;;;;;;;9.60;6.00;;;;;;;2.63;67.62;99706.88;5113551;28;20487;-72
2020/12/07 02:44:24;;;;;;;9.48;5.70;;;;;;;2.63;67.42;99691.34;5113712;28;20462;-72
2020/12/07 02:46:50;;;;;;;6.20;4.30;;;;;;;2.62;67.57;99710.34;5113713;28;20079;-71
2020/12/07 02:49:16;;;;;;;9.50;7.40;;;;;;;2.60;67.59;99704.34;5113517;28;20094;-72
2020/12/07 02:51:42;;;;;;;7.97;5.32;;;;;;;2.60;67.32;99696.59;5113267;28;20576;-72
2020/12/07 02:54:10;;;;;;;7.70;5.40;;;;;;;2.57;67.42;99691.47;5113377;28;20127;-71
2020/12/07 02:56:36;;;;;;;10.68;6.78;;;;;;;2.57;67.23;99691.47;5113298;28;20538;-71
2020/12/07 02:59:02;;;;;;;10.35;5.85;;;;;;;2.58;67.58;99695.75;5113441;28;20106;-72
2020/12/07 03:01:28;;;;;;;6.18;4.57;;;;;;;2.56;67.08;99696.66;5113777;28;20063;-71
2020/12/07 03:03:54;;;;;;;7.68;5.28;;;;;;;2.51;67.31;99691.56;5113474;28;20085;-71
2020/12/07 03:06:20;;;;;;;10.07;5.80;;;;;;;2.51;67.34;99704.50;5113339;28;20043;-72
2020/12/07 03:08:47;;;;;;;7.55;4.72;;;;;;;2.50;67.28;99694.13;5113154;28;20379;-72
2020/12/07 03:11:14;;;;;;;10.82;6.03;;;;;;;2.48;67.42;99696.75;5113409;28;20138;-72
2020/12/07 03:13:40;;;;;;;8.68;5.15;;;;;;;2.48;67.16;99691.56;5113594;28;20047;-72
2020/12/07 03:16:06;;;;;;;9.57;5.20;;;;;;;2.45;67.34;99692.47;5115218;28;20507;-71
2020/12/07 03:18:32;;;;;;;11.73;5.93;;;;;;;2.48;67.36;99690.72;5117300;28;20392;-72
2020/12/07 03:20:58;;;;;;;11.20;5.65;;;;;;;2.46;67.21;99698.50;5115522;28;20059;-72
2020/12/07 03:23:25;;;;;;;11.32;5.20;;;;;;;2.44;67.28;99695.94;5113345;28;20044;-71
2020/12/07 03:25:51;;;;;;;10.30;6.07;;;;;;;2.45;67.12;99689.03;5113469;28;20490;-72
2020/12/07 03:28:18;;;;;;;11.82;5.80;;;;;;;2.40;67.36;99688.25;5113370;28;20510;-73
2020/12/07 03:30:44;;;;;;;7.35;4.80;;;;;;;2.38;67.16;99692.59;5113676;28;20130;-71
2020/12/07 03:33:10;;;;;;;11.95;6.13;;;;;;;2.35;67.32;99684.88;5113445;28;20071;-72
2020/12/07 03:35:36;;;;;;;7.82;4.75;;;;;;;2.32;67.11;99690.97;5113350;28;20131;-72
2020/12/07 03:38:03;;;;;;;8.85;5.72;;;;;;;2.31;67.22;99693.56;5113090;28;20148;-71
2020/12/07 03:40:32;;;;;;;7.75;4.43;;;;;;;2.26;67.18;99693.59;5113207;28;20105;-72
2020/12/07 03:42:58;;;;;;;8.70;5.05;;;;;;;2.22;67.29;99668.66;5112682;28;20124;-71
2020/12/07 03:45:26;;;;;;;8.05;5.32;;;;;;;2.21;67.42;99681.63;5112994;28;20087;-72
2020/12/07 03:47:52;;;;;;;9.68;5.28;;;;;;;2.21;67.13;99705.75;5112889;28;20125;-71
2020/12/07 03:50:18;;;;;;;10.80;6.57;;;;;;;2.19;67.10;99693.72;5112727;28;20456;-71
2020/12/07 03:52:44;;;;;;;5.18;4.05;;;;;;;2.18;67.50;99704.94;5112604;28;20082;-70
2020/12/07 03:55:11;;;;;;;6.28;3.70;;;;;;;2.17;67.32;99687.72;5112653;28;20043;-70
2020/12/07 03:57:37;;;;;;;7.35;4.57;;;;;;;2.18;67.36;99692.00;5112636;28;20079;-71
2020/12/07 04:00:05;;;;;;;8.23;5.07;;;;;;;2.20;67.20;99688.53;5112343;28;20051;-69
2020/12/07 04:02:32;;;;;;;9.82;6.18;;;;;;;2.20;67.28;99691.13;5112572;28;20118;-70
2020/12/07 04:05:03;;;;;;;8.25;4.32;;;;;;;2.19;67.17;99685.97;5112622;28;20471;-71
2020/12/07 04:07:29;;;;;;;7.40;5.13;;;;;;;2.18;67.17;99687.69;5112571;28;20066;-70
2020/12/07 04:09:55;;;;;;;7.30;4.05;;;;;;;2.16;67.15;99684.28;5112571;28;20071;-71
2020/12/07 04:12:21;;;;;;;6.65;4.72;;;;;;;2.14;67.16;99686.03;5112477;28;20152;-71
2020/12/07 04:14:47;;;;;;;10.25;6.35;;;;;;;2.11;66.96;99680.91;5112407;28;20487;-72
2020/12/07 04:17:13;;;;;;;9.95;5.75;;;;;;;2.10;67.29;99687.81;5112054;28;20130;-71
2020/12/07 04:19:41;;;;;;;10.25;4.13;;;;;;;2.12;67.39;99680.88;5112190;28;20155;-70
2020/12/07 04:22:10;;;;;;;6.88;4.47;;;;;;;2.11;67.39;99676.59;5112266;28;20055;-70
2020/12/07 04:24:36;;;;;;;9.30;5.82;;;;;;;2.10;67.33;99680.06;5111872;28;20468;-71
2020/12/07 04:27:02;;;;;;;6.65;4.25;;;;;;;2.09;67.25;99655.06;5114038;28;20166;-71
2020/12/07 04:29:28;;;;;;;7.30;4.30;;;;;;;2.07;67.39;99674.91;5116370;28;20072;-71
2020/12/07 04:31:54;;;;;;;12.25;5.05;;;;;;;2.06;67.41;99656.81;5116309;28;20093;-70
2020/12/07 04:34:20;;;;;;;6.40;4.43;;;;;;;2.05;67.31;99671.47;5116127;28;20089;-70
2020/12/07 04:36:47;;;;;;;7.40;4.00;;;;;;;2.03;67.25;99688.75;5116273;28;20430;-70
2020/12/07 04:39:14;;;;;;;8.00;4.28;;;;;;;2.01;67.34;99662.06;5115874;28;20079;-70
2020/12/07 04:41:42;;;;;;;8.52;5.15;;;;;;;2.02;67.21;99671.53;5116254;28;20090;-70
2020/12/07 04:44:09;;;;;;;7.55;4.95;;;;;;;2.03;67.20;99678.41;5116050;28;20447;-70
2020/12/07 04:46:35;;;;;;;6.72;4.35;;;;;;;2.03;67.43;99670.66;5116000;28;20075;-71
2020/12/07 04:49:02;;;;;;;7.55;5.03;;;;;;;2.01;67.26;99674.13;5115878;28;20126;-70
2020/12/07 04:51:29;;;;;;;10.02;6.30;;;;;;;2.00;67.18;99662.94;5116544;28;20055;-71
2020/12/07 04:53:59;;;;;;;9.52;5.32;;;;;;;1.98;67.18;99659.50;5115858;28;20495;-72
2020/12/07 04:56:27;;;;;;;4.75;3.25;;;;;;;1.97;67.29;99662.13;5116550;28;20302;-71
2020/12/07 04:58:54;;;;;;;7.93;4.75;;;;;;;1.96;67.28;99647.50;5115824;28;20052;-70
2020/12/07 05:01:20;;;;;;;8.00;4.65;;;;;;;1.94;67.35;99665.59;5117029;28;20075;-71
2020/12/07 05:03:48;;;;;;;7.55;4.47;;;;;;;1.96;67.41;99650.06;5116826;28;20067;-72
2020/12/07 05:06:19;;;;;;;9.05;4.68;;;;;;;1.95;67.55;99646.63;5115910;28;20100;-71
2020/12/07 05:08:45;;;;;;;7.38;4.97;;;;;;;1.96;67.21;99630.25;5116389;28;20043;-71
2020/12/07 05:11:13;;;;;;;5.85;4.43;;;;;;;1.92;67.46;99633.75;5116427;28;20395;-70
2020/12/07 05:13:41;;;;;;;9.10;4.45;;;;;;;1.91;67.66;99651.88;5116353;28;20055;-69
2020/12/07 05:16:08;;;;;;;8.43;4.97;;;;;;;1.89;67.64;99644.13;5115881;28;20100;-70
2020/12/07 05:18:34;;;;;;;8.80;4.72;;;;;;;1.91;67.81;99651.88;5115998;28;20127;-71
2020/12/07 05:21:02;;;;;;;4.95;3.72;;;;;;;1.91;67.50;99657.91;5116157;28;20059;-69
2020/12/07 05:23:28;;;;;;;6.68;3.97;;;;;;;1.91;67.72;99677.72;5115066;28;20083;-71
2020/12/07 05:25:55;;;;;;;8.45;5.15;;;;;;;1.92;67.61;99675.13;5115582;28;20483;-71
2020/12/07 05:28:28;;;;;;;7.95;5.35;;;;;;;1.95;67.66;99680.25;5115311;28;20082;-70
2020/12/07 05:30:54;;;;;;;6.72;4.05;;;;;;;1.98;67.56;99684.50;5115833;28;20051;-70
2020/12/07 05:33:20;;;;;;;11.82;5.97;;;;;;;1.98;67.50;99677.63;5115335;28;20043;-70
2020/12/07 05:35:53;;;;;;;7.05;4.70;;;;;;;1.99;67.45;99676.75;5115618;28;20075;-71
2020/12/07 05:38:19;;;;;;;5.43;3.50;;;;;;;1.99;67.50;99675.88;5114917;28;20043;-71
2020/12/07 05:40:46;;;;;;;5.13;3.53;;;;;;;2.01;67.41;99685.31;5115434;28;20117;-71
2020/12/07 05:43:13;;;;;;;6.65;4.47;;;;;;;2.00;67.71;99678.44;5115366;28;20075;-71
2020/12/07 05:45:42;;;;;;;8.60;4.80;;;;;;;2.03;67.51;99678.41;5115059;28;20040;-71
2020/12/07 05:48:10;;;;;;;8.65;5.57;;;;;;;2.04;67.69;99690.44;5114932;28;20131;-71
2020/12/07 05:50:42;;;;;;;8.60;4.45;;;;;;;2.04;67.54;99698.22;5114955;28;20083;-69
2020/12/07 05:53:08;;;;;;;8.55;5.63;;;;;;;2.06;67.30;99682.66;5115095;28;20090;-70
2020/12/07 05:55:35;;;;;;;6.22;3.85;;;;;;;2.08;67.48;99717.13;5114404;28;20083;-69
2020/12/07 05:58:04;;;;;;;7.40;4.72;;;;;;;2.07;67.47;99677.47;5114412;28;20120;-70
2020/12/07 06:00:32;;;;;;;10.20;4.00;;;;;;;2.10;67.20;99667.13;5114651;28;20060;-69
2020/12/07 06:03:00;;;;;;;6.28;4.28;;;;;;;2.09;67.33;99677.50;5114522;28;20073;-68
2020/12/07 06:05:27;;;;;;;7.28;5.22;;;;;;;2.08;67.24;99679.22;5114127;28;20134;-70
2020/12/07 06:07:57;;;;;;;5.57;3.40;;;;;;;2.08;67.37;99697.31;5114634;28;20094;-70
2020/12/07 06:10:29;;;;;;;10.45;5.72;;;;;;;2.09;67.27;99668.00;5114240;28;20518;-69
2020/12/07 06:12:58;;;;;;;10.85;6.15;;;;;;;2.10;67.49;99674.03;5114699;28;20395;-70
2020/12/07 06:15:27;;;;;;;8.32;5.07;;;;;;;2.10;67.14;99684.38;5114596;28;20075;-69
2020/12/07 06:17:53;;;;;;;8.95;4.55;;;;;;;2.10;67.28;99690.41;5114045;28;20511;-69
2020/12/07 06:20:31;;;;;;;10.93;5.88;;;;;;;2.09;67.20;99678.34;5114252;28;20083;-69
2020/12/07 06:22:58;;;;;;;10.63;5.22;;;;;;;2.12;67.20;99683.47;5113838;28;20480;-68
2020/12/07 06:25:30;;;;;;;12.18;6.70;;;;;;;2.10;67.20;99695.56;5114278;28;20077;-68
2020/12/07 06:27:58;;;;;;;11.48;5.90;;;;;;;2.12;67.27;99688.63;5113775;28;20043;-69
2020/12/07 06:30:30;;;;;;;14.60;7.63;;;;;;;2.12;67.43;99698.13;5114017;28;20036;-69
2020/12/07 06:32:56;;;;;;;11.50;6.50;;;;;;;2.15;67.33;99698.09;5104129;28;20068;-69
2020/12/07 06:35:26;;;;;;;8.63;5.40;;;;;;;2.14;67.31;99728.25;5103375;28;20522;-68
2020/12/07 06:37:53;;;;;;;6.50;4.05;;;;;;;2.14;67.07;99693.78;5106523;28;20131;-69
2020/12/07 06:40:21;;;;;;;7.90;5.20;;;;;;;2.13;66.91;99699.84;5108438;28;20130;-68
2020/12/07 06:42:48;;;;;;;8.07;4.63;;;;;;;2.14;66.98;99692.06;5109766;28;20508;-67
2020/12/07 06:45:22;;;;;;;9.38;5.90;;;;;;;2.14;66.93;99711.88;5110777;28;20054;-68
2020/12/07 06:47:51;;;;;;;9.23;5.32;;;;;;;2.16;66.87;99693.78;5111405;28;20439;-68
2020/12/07 06:50:21;;;;;;;8.15;4.65;;;;;;;2.14;67.13;99697.22;5111959;28;20131;-68
2020/12/07 06:52:48;;;;;;;10.95;5.50;;;;;;;2.17;66.84;99716.16;5112662;28;20051;-67
2020/12/07 06:55:17;;;;;;;6.07;4.18;;;;;;;2.17;66.71;99708.41;5113649;28;20054;-67
2020/12/07 06:57:45;;;;;;;13.18;5.38;;;;;;;2.17;67.06;99723.91;5106711;28;20131;-68
2020/12/07 07:00:14;;;;;;;10.18;4.43;;;;;;;2.17;66.87;99732.53;5096727;28;20584;-68
2020/12/07 07:02:41;;;;;;;11.05;6.03;;;;;;;2.18;66.70;99715.28;5093082;28;20157;-64
2020/12/07 07:05:08;;;;;;;8.80;5.80;;;;;;;2.22;66.98;99709.19;5093321;28;20054;-65
2020/12/07 07:07:35;;;;;;;7.95;5.45;;;;;;;2.23;66.58;99718.66;5092944;28;20085;-66
2020/12/07 07:10:03;;;;;;;10.82;6.20;;;;;;;2.21;66.55;99734.19;5093226;28;20093;-66
2020/12/07 07:12:30;;;;;;;13.15;6.70;;;;;;;2.23;66.70;99729.00;5092972;28;20086;-66
2020/12/07 07:14:57;;;;;;;13.80;6.75;;;;;;;2.23;66.54;99721.25;5092722;28;20513;-66
2020/12/07 07:17:25;;;;;;;6.45;4.90;;;;;;;2.24;66.44;99713.47;5091423;28;20048;-69
2020/12/07 07:19:51;;;;;;;7.35;5.05;;;;;;;2.22;66.63;99711.78;5109196;28;20086;-67
2020/12/07 07:22:18;;;;;;;13.82;7.13;;;;;;;2.23;66.74;99732.44;5112779;28;20090;-68
2020/12/07 07:25:02;;;;;;;12.18;6.00;;;;;;;2.26;66.30;99708.28;5112657;28;20044;-65
2020/12/07 07:30:15;;;;;;;12.45;6.60;;;;;;;2.26;66.52;99716.03;5112993;28;20045;-68
2020/12/07 07:32:42;;;;;;;9.88;5.18;;;;;;;2.26;66.61;99722.06;5112444;28;20078;-67
2020/12/07 07:35:08;;;;;;;13.52;7.75;;;;;;;2.29;66.37;99716.88;5112547;28;20116;-67
2020/12/07 07:37:35;;;;;;;8.65;5.80;;;;;;;2.29;66.24;99713.41;5093634;28;20058;-67
2020/12/07 07:40:03;;;;;;;11.00;5.65;;;;;;;2.30;66.30;99730.66;5095687;28;20052;-66
2020/12/07 07:42:32;;;;;;;8.25;5.35;;;;;;;2.29;66.37;99722.03;5091224;28;20072;-66
2020/12/07 07:44:59;;;;;;;5.93;4.57;;;;;;;2.31;66.73;99711.69;5098901;28;20117;-68
2020/12/07 07:47:31;;;;;;;7.53;5.45;;;;;;;2.31;66.37;99714.25;5102537;28;20060;-67
2020/12/07 08:15:24;;;;;;;8.68;6.05;;;;;;;2.32;66.24;99721.16;5091202;28;20083;-67
2020/12/07 08:17:52;;;;;;;21.80;5.80;;;;;;;2.33;66.05;99715.09;5101511;28;20044;-68
2020/12/07 08:20:22;;;;;;;9.30;5.97;;;;;;;2.34;66.03;99724.56;5097763;28;20056;-66
2020/12/07 08:22:56;;;;;;;8.65;5.60;;;;;;;2.37;66.00;99729.69;5096850;28;20525;-66
2020/12/07 08:25:48;;;;;;;10.43;6.65;;;;;;;2.38;65.99;99728.81;5095345;28;20071;-66
2020/12/07 08:28:23;;;;;;;9.85;6.32;;;;;;;2.42;65.97;99733.06;5110176;28;20144;-65
2020/12/07 08:31:13;;;;;;;13.50;6.88;;;;;;;2.44;65.71;99720.97;5111642;28;20040;-65
2020/12/07 08:33:41;;;;;;;6.57;4.85;;;;;;;2.45;65.40;99712.31;5110448;28;20104;-65
2020/12/07 08:36:09;;;;;;;8.52;5.05;;;;;;;2.42;65.86;99726.16;5111386;28;20075;-65
2020/12/07 08:38:39;;;;;;;11.50;6.65;;;;;;;2.46;65.58;99745.06;5110581;28;20097;-66
2020/12/07 08:41:11;;;;;;;10.70;6.63;;;;;;;2.47;65.51;99726.09;5111268;28;20518;-65
2020/12/07 08:43:42;;;;;;;10.40;6.65;;;;;;;2.49;65.25;99728.66;5110444;28;20101;-66
2020/12/07 08:46:11;;;;;;;11.68;5.25;;;;;;;2.49;65.36;99723.47;5110940;28;20449;-67
2020/12/07 08:48:39;;;;;;;12.18;7.07;;;;;;;2.49;65.33;99726.91;5110714;28;20051;-66
2020/12/07 08:51:05;;;;;;;8.32;4.75;;;;;;;2.54;65.26;99729.47;5110868;28;20050;-66
2020/12/07 08:53:33;;;;;;;8.70;5.07;;;;;;;2.53;65.17;99740.69;5110689;28;20047;-66
2020/12/07 08:55:59;;;;;;;11.75;6.53;;;;;;;2.56;65.10;99741.50;5110729;28;20120;-64
2020/12/07 08:58:25;;;;;;;11.75;6.50;;;;;;;2.58;65.00;99739.75;5110602;28;20044;-69
2020/12/07 09:00:52;;;;;;;7.80;5.13;;;;;;;2.65;64.83;99746.53;5111245;28;20137;-68
2020/12/07 09:03:18;;;;;;;9.15;6.18;;;;;;;2.73;65.02;99739.53;5110492;28;20047;-66
2020/12/07 09:05:44;;;;;;;11.38;6.40;;;;;;;2.73;64.51;99736.94;5110559;28;20047;-69
2020/12/07 09:08:11;;;;;;;10.30;6.55;;;;;;;2.77;64.55;99731.72;5110467;28;20051;-69
2020/12/07 09:10:39;;;;;;;12.95;7.03;;;;;;;2.77;64.56;99727.41;5109264;28;20078;-69
2020/12/07 09:13:05;;;;;;;13.15;6.82;;;;;;;2.79;64.04;99732.56;5097685;28;20040;-67
2020/12/07 09:15:32;;;;;;;22.13;9.50;;;;;;;2.84;63.98;99725.56;5103125;28;20048;-68
2020/12/07 09:17:58;;;;;;;12.07;4.43;;;;;;;2.89;63.80;99731.50;5098383;28;20040;-69
2020/12/07 09:20:25;;;;;;;7.68;4.55;;;;;;;2.96;63.49;99746.09;5114319;28;20079;-69
2020/12/07 09:22:52;;;;;;;11.88;5.97;;;;;;;3.00;63.23;99730.47;5109794;28;20052;-72
2020/12/07 09:25:18;;;;;;;13.68;6.72;;;;;;;3.15;62.97;99726.78;5105125;28;20475;-73
2020/12/07 09:27:46;;;;;;;10.65;6.75;;;;;;;3.29;62.27;99732.56;5100561;28;20047;-70
2020/12/07 09:30:13;;;;;;;13.52;7.90;;;;;;;3.39;62.07;99730.69;5102930;28;20089;-70
2020/12/07 09:32:39;;;;;;;10.73;6.15;;;;;;;3.35;61.29;99750.63;5106557;28;20048;-70
2020/12/07 09:35:08;;;;;;;11.93;6.40;;;;;;;3.27;61.80;99736.94;5112869;28;20101;-69
2020/12/07 09:37:34;;;;;;;11.07;6.88;;;;;;;3.27;61.97;99736.94;5110325;28;20050;-69
2020/12/07 09:40:01;;;;;;;11.05;6.97;;;;;;;3.35;61.63;99735.09;5113716;28;20105;-71
2020/12/07 09:42:27;;;;;;;15.18;8.30;;;;;;;3.51;61.60;99742.56;5112819;28;20083;-68
2020/12/07 09:44:55;;;;;;;14.55;6.30;;;;;;;3.65;60.84;99735.41;5114286;28;20043;-70
2020/12/07 09:47:21;;;;;;;12.43;7.18;;;;;;;3.72;60.41;99731.81;5113874;28;20051;-70
2020/12/07 09:49:47;;;;;;;13.15;7.47;;;;;;;3.78;60.71;99729.13;5113436;28;20075;-70
2020/12/07 09:52:14;;;;;;;9.30;5.20;;;;;;;3.83;60.25;99732.47;5112937;28;20047;-68
2020/12/07 09:54:40;;;;;;;10.57;6.82;;;;;;;3.96;60.10;99718.41;5113660;28;20500;-69
2020/12/07 09:57:06;;;;;;;13.77;8.27;;;;;;;4.13;58.89;99714.59;5113863;28;20050;-68
2020/12/07 09:59:34;;;;;;;14.93;9.30;;;;;;;4.17;58.85;99716.25;5113332;28;20083;-68
2020/12/07 10:02:01;;;;;;;13.23;6.75;;;;;;;4.21;58.72;99723.94;5113731;28;20112;-68
2020/12/07 10:04:28;;;;;;;10.52;6.55;;;;;;;4.16;58.41;99735.28;5112901;28;20048;-68
2020/12/07 10:06:54;;;;;;;17.75;7.75;;;;;;;4.21;58.90;99726.53;5113006;28;20052;-69
2020/12/07 10:09:21;;;;;;;17.45;7.95;;;;;;;4.35;58.50;99726.22;5112830;28;20093;-68
2020/12/07 10:11:47;;;;;;;6.30;4.75;;;;;;;4.58;58.17;99718.81;5113950;28;20148;-68
2020/12/07 10:14:14;;;;;;;15.45;6.60;;;;;;;4.76;57.88;99732.22;5113264;28;20054;-67
2020/12/07 10:16:42;;;;;;;9.13;6.13;;;;;;;4.81;57.32;99715.69;5113721;28;20043;-69
2020/12/07 10:19:10;;;;;;;13.38;6.00;;;;;;;4.87;56.79;99740.66;5112885;28;20040;-69
2020/12/07 10:21:36;;;;;;;10.18;6.45;;;;;;;4.76;56.78;99727.91;5113038;28;20055;-69
2020/12/07 10:24:03;;;;;;;13.55;5.82;;;;;;;4.85;56.56;99735.50;5112620;28;20558;-70
2020/12/07 10:26:30;;;;;;;15.75;8.13;;;;;;;4.89;56.90;99739.72;5113210;28;20055;-68
2020/12/07 10:28:57;;;;;;;8.45;6.20;;;;;;;5.13;55.99;99733.09;5112662;28;20495;-70
2020/12/07 10:31:23;;;;;;;8.75;5.82;;;;;;;5.19;56.02;99732.91;5113004;28;20044;-68
2020/12/07 10:33:50;;;;;;;6.35;4.13;;;;;;;5.21;56.17;99732.91;5112764;28;20055;-68
2020/12/07 10:36:18;;;;;;;7.55;5.28;;;;;;;5.15;55.92;99720.03;5113064;28;20044;-67
2020/12/07 10:38:45;;;;;;;11.93;5.78;;;;;;;5.01;56.32;99728.19;5112779;28;20040;-68
2020/12/07 10:41:13;;;;;;;11.45;7.60;;;;;;;4.90;56.36;99720.66;5113059;28;20058;-68
2020/12/07 10:43:40;;;;;;;8.40;5.72;;;;;;;4.90;56.37;99725.00;5112316;28;20044;-67
2020/12/07 10:46:07;;;;;;;16.35;6.85;;;;;;;4.79;56.45;99719.19;5113372;28;20400;-66
2020/12/07 10:48:33;;;;;;;7.30;5.35;;;;;;;4.65;56.42;99709.13;5112113;28;20063;-66
2020/12/07 10:50:59;;;;;;;10.57;4.95;;;;;;;4.43;57.14;99726.94;5112108;28;20336;-66
2020/12/07 10:53:27;;;;;;;9.25;5.10;;;;;;;4.31;57.10;99711.59;5106374;28;20075;-66
2020/12/07 10:55:53;;;;;;;10.93;6.30;;;;;;;4.23;57.12;99726.50;5104025;28;20052;-68
2020/12/07 10:58:19;;;;;;;11.30;7.18;;;;;;;4.26;56.96;99716.03;5099251;28;20394;-67
2020/12/07 11:00:46;;;;;;;10.07;4.05;;;;;;;4.20;57.20;99724.81;5111704;28;20055;-68
2020/12/07 11:03:12;;;;;;;12.07;6.85;;;;;;;4.05;57.25;99738.09;5111855;28;20101;-68
2020/12/07 11:05:40;;;;;;;7.22;5.13;;;;;;;3.95;57.47;99721.84;5112005;28;20497;-69
2020/12/07 11:08:13;;;;;;;12.45;6.93;;;;;;;4.02;57.56;99732.13;5108457;28;20044;-71
2020/12/07 11:10:40;;;;;;;11.60;6.07;;;;;;;4.08;57.55;99732.00;5106587;28;20048;-70
2020/12/07 11:13:21;;;;;;;10.80;7.05;;;;;;;4.06;57.49;99732.03;5105055;28;20403;-69
2020/12/07 11:15:47;;;;;;;;;;;;;;;4.16;57.36;99719.72;5106729;28;20047;-68
2020/12/07 11:18:13;;;;;;;11.35;6.25;;;;;;;3.99;57.36;99717.47;5107342;28;20335;-69
2020/12/07 11:20:39;;;;;;;9.90;6.20;;;;;;;3.94;57.67;99724.47;5107779;28;20105;-68
2020/12/07 11:23:06;;;;;;;8.63;4.60;;;;;;;3.94;57.79;99717.53;5102267;28;20075;-68
2020/12/07 11:25:32;;;;;;;11.77;7.45;;;;;;;3.95;57.92;99719.25;5105439;28;20050;-68
2020/12/07 11:27:59;;;;;;;8.27;4.50;;;;;;;3.93;57.66;99727.94;5105416;28;21073;-68
2020/12/07 11:30:26;;;;;;;9.80;5.55;;;;;;;3.87;57.98;99721.16;5107323;28;20767;-68
2020/12/07 11:32:52;;;;;;;10.30;4.95;;;;;;;3.81;57.91;99716.09;5109503;28;20333;-68
2020/12/07 11:35:19;;;;;;;8.55;4.88;;;;;;;3.77;58.17;99717.03;5109836;28;20051;-68
2020/12/07 11:37:48;;;;;;;12.20;6.38;;;;;;;3.75;58.38;99708.44;5104215;28;20093;-68
2020/12/07 11:40:20;;;;;;;11.02;6.25;;;;;;;3.74;58.30;99708.44;5102563;28;20048;-68
2020/12/07 11:42:51;;;;;;;11.70;5.82;;;;;;;3.72;58.16;99702.44;5109566;28;20047;-68
2020/12/07 11:45:18;;;;;;;14.15;6.13;;;;;;;3.66;58.21;99698.25;5104721;28;20105;-68
2020/12/07 11:47:44;;;;;;;10.68;6.22;;;;;;;3.64;58.46;99700.88;5106856;28;20184;-67
2020/12/07 11:50:10;;;;;;;8.07;4.28;;;;;;;3.69;58.27;99698.16;5101094;28;20596;-69
2020/12/07 11:52:37;;;;;;;12.27;6.45;;;;;;;3.72;58.38;99697.25;5103682;28;20082;-68
2020/12/07 11:55:03;;;;;;;11.00;5.70;;;;;;;3.76;58.35;99689.41;5104269;28;20135;-68
2020/12/07 11:57:29;;;;;;;5.88;4.32;;;;;;;3.81;58.18;99702.28;5097628;28;20060;-68
2020/12/07 11:59:55;;;;;;;7.82;5.35;;;;;;;3.83;58.21;99706.53;5098655;28;20063;-69
2020/12/07 12:02:23;;;;;;;7.65;5.30;;;;;;;3.84;57.92;99702.22;5103609;28;20077;-68
2020/12/07 12:04:49;;;;;;;8.50;4.95;;;;;;;3.84;58.18;99702.22;5101404;28;20071;-68